| time (UTC) | temp F | wind direction | speed knots | gust knots | rain 1hr in | rain 24hr in | rain mn in | humidity % | barometer mb |
| 20260510043516 | 51 | 90 | 0.0 | 2.6 | 0.00 | 0.13 | 0.00 | 1 | 1009.0 |
| 20260510042516 | 51 | 0.0 | 0.0 | 0.00 | 0.13 | 0.00 | 1 | 1009.0 | |
| 20260510041516 | 51 | 0.0 | 0.0 | 0.00 | 0.13 | 0.00 | 1 | 1009.1 | |
| 20260510040516 | 52 | 0.0 | 0.0 | 0.00 | 0.13 | 0.00 | 1 | 1009.1 | |
| 20260510035535 | 52 | 0.0 | 0.0 | 0.00 | 0.13 | 0.13 | 1 | 1009.1 | |
| 20260510034515 | 52 | 0.0 | 1.7 | 0.00 | 0.13 | 0.13 | 1 | 1008.9 | |
| 20260510033515 | 52 | 143 | 0.9 | 1.7 | 0.00 | 0.13 | 0.13 | 1 | 1008.8 |
| 20260510032515 | 52 | 0.0 | 0.0 | 0.00 | 0.13 | 0.13 | 1 | 1008.9 | |
| 20260510031515 | 50 | 0.0 | 0.0 | 0.00 | 0.13 | 0.13 | 1 | 1008.9 | |
| 20260510030515 | 50 | 0.0 | 0.0 | 0.00 | 0.13 | 0.13 | 1 | 1008.9 | |
| 20260510025515 | 50 | 0.0 | 0.0 | 0.00 | 0.13 | 0.13 | 1 | 1008.9 | |
| 20260510024515 | 51 | 0.0 | 0.0 | 0.00 | 0.13 | 0.13 | 1 | 1008.9 | |
| 20260510023515 | 51 | 0.0 | 0.0 | 0.00 | 0.13 | 0.13 | 1 | 1008.8 | |
| 20260510022515 | 51 | 0.0 | 0.0 | 0.00 | 0.13 | 0.13 | 1 | 1008.8 | |
| 20260510021515 | 51 | 0.0 | 0.0 | 0.00 | 0.13 | 0.13 | 1 | 1008.7 | |
| 20260510020515 | 51 | 0.0 | 0.0 | 0.00 | 0.13 | 0.13 | 1 | 1008.5 | |
| 20260510015515 | 51 | 0.0 | 0.0 | 0.00 | 0.13 | 0.13 | 1 | 1008.4 | |
| 20260510014515 | 52 | 0.0 | 0.0 | 0.00 | 0.13 | 0.13 | 1 | 1008.4 | |
| 20260510013515 | 52 | 0.0 | 0.0 | 0.00 | 0.13 | 0.13 | 1 | 1008.3 | |
| 20260510012515 | 52 | 0.0 | 0.0 | 0.00 | 0.13 | 0.13 | 1 | 1008.3 | |
| 20260510011515 | 52 | 0.0 | 0.0 | 0.00 | 0.13 | 0.13 | 1 | 1008.2 | |
| 20260510010515 | 52 | 0.0 | 0.0 | 0.00 | 0.13 | 0.13 | 1 | 1008.1 | |
| 20260510005515 | 53 | 0.0 | 0.0 | 0.00 | 0.13 | 0.13 | 1 | 1008.1 | |
| 20260510004515 | 53 | 0.0 | 0.0 | 0.00 | 0.13 | 0.13 | 1 | 1007.9 | |
| 20260510003515 | 54 | 0.0 | 0.0 | 0.00 | 0.13 | 0.13 | 9 | 1007.8 | |
| 20260510002535 | 55 | 0.0 | 0.0 | 0.00 | 0.13 | 0.13 | 37 | 1007.7 | |
| 20260510001515 | 56 | 0.0 | 0.0 | 0.00 | 0.13 | 0.13 | 58 | 1007.6 | |
| 20260510000515 | 58 | 0.0 | 0.0 | 0.00 | 0.13 | 0.13 | 69 | 1007.6 | |
| 20260509235515 | 58 | 179 | 0.0 | 1.7 | 0.00 | 0.13 | 0.13 | 71 | 1007.6 |
| 20260509234535 | 59 | 179 | 1.7 | 2.6 | 0.00 | 0.13 | 0.13 | 72 | 1007.5 |
| 20260509233515 | 59 | 198 | 1.7 | 2.6 | 0.00 | 0.13 | 0.13 | 71 | 1007.5 |
| 20260509232515 | 59 | 201 | 0.9 | 2.6 | 0.00 | 0.13 | 0.13 | 70 | 1007.4 |
| 20260509231515 | 60 | 202 | 1.7 | 3.5 | 0.00 | 0.13 | 0.13 | 70 | 1007.3 |
| 20260509230515 | 60 | 194 | 1.7 | 3.5 | 0.00 | 0.13 | 0.13 | 70 | 1007.4 |
| 20260509225515 | 60 | 215 | 2.6 | 3.5 | 0.00 | 0.13 | 0.13 | 70 | 1007.4 |
| 20260509224515 | 60 | 236 | 3.5 | 7.0 | 0.00 | 0.13 | 0.13 | 71 | 1007.4 |
| 20260509223515 | 60 | 235 | 5.2 | 7.0 | 0.00 | 0.13 | 0.13 | 71 | 1007.4 |
| 20260509222515 | 60 | 238 | 4.3 | 7.0 | 0.00 | 0.13 | 0.13 | 70 | 1007.3 |
| 20260509221515 | 60 | 233 | 1.7 | 3.5 | 0.00 | 0.13 | 0.13 | 65 | 1007.4 |
| 20260509220515 | 59 | 199 | 2.6 | 5.2 | 0.00 | 0.13 | 0.13 | 60 | 1007.5 |
| 20260509215535 | 59 | 213 | 2.6 | 5.2 | 0.00 | 0.13 | 0.13 | 57 | 1007.6 |
| 20260509214515 | 58 | 209 | 2.6 | 6.1 | 0.00 | 0.13 | 0.13 | 51 | 1007.7 |
| 20260509213517 | 58 | 233 | 4.3 | 7.0 | 0.00 | 0.13 | 0.13 | 49 | 1007.8 |
| 20260509212517 | 57 | 245 | 4.3 | 7.0 | 0.00 | 0.13 | 0.13 | 48 | 1007.8 |
| 20260509211517 | 57 | 249 | 3.5 | 6.1 | 0.00 | 0.13 | 0.13 | 47 | 1007.8 |
| 20260509210517 | 57 | 245 | 4.3 | 7.8 | 0.00 | 0.13 | 0.13 | 44 | 1007.7 |
| 20260509205517 | 56 | 230 | 4.3 | 6.1 | 0.00 | 0.13 | 0.13 | 30 | 1007.7 |
| 20260509204517 | 56 | 229 | 3.5 | 7.0 | 0.00 | 0.13 | 0.13 | 34 | 1008.0 |
| 20260509203517 | 56 | 242 | 4.3 | 9.6 | 0.00 | 0.13 | 0.13 | 34 | 1008.0 |
| 20260509202517 | 57 | 260 | 2.6 | 7.8 | 0.00 | 0.13 | 0.13 | 15 | 1008.1 |
| 20260509201517 | 56 | 252 | 1.7 | 6.1 | 0.00 | 0.13 | 0.13 | 11 | 1008.2 |
| 20260509200537 | 56 | 247 | 4.3 | 7.0 | 0.00 | 0.13 | 0.13 | 12 | 1008.4 |
| 20260509195517 | 56 | 241 | 4.3 | 7.8 | 0.00 | 0.13 | 0.13 | 3 | 1008.4 |
| 20260509194517 | 55 | 243 | 4.3 | 7.0 | 0.00 | 0.13 | 0.13 | 3 | 1008.4 |
| 20260509193517 | 55 | 198 | 3.5 | 6.1 | 0.00 | 0.13 | 0.13 | 1 | 1008.4 |
| 20260509192517 | 55 | 183 | 3.5 | 6.1 | 0.00 | 0.13 | 0.13 | 1 | 1008.5 |
| 20260509191517 | 55 | 199 | 2.6 | 6.1 | 0.00 | 0.13 | 0.13 | 1 | 1008.6 |
| 20260509190517 | 55 | 169 | 2.6 | 5.2 | 0.01 | 0.13 | 0.13 | 1 | 1008.7 |
| 20260509185517 | 54 | 187 | 1.7 | 3.5 | 0.01 | 0.13 | 0.13 | 1 | 1008.9 |
| 20260509184515 | 54 | 184 | 0.9 | 4.3 | 0.02 | 0.13 | 0.13 | 1 | 1009.1 |
| 20260509183517 | 53 | 190 | 3.5 | 5.2 | 0.02 | 0.13 | 0.13 | 1 | 1009.5 |
| 20260509182517 | 53 | 174 | 1.7 | 5.2 | 0.03 | 0.13 | 0.13 | 1 | 1009.4 |
| 20260509181515 | 53 | 171 | 2.6 | 5.2 | 0.03 | 0.13 | 0.13 | 1 | 1009.3 |
| 20260509180537 | 53 | 173 | 3.5 | 5.2 | 0.03 | 0.12 | 0.12 | 1 | 1009.4 |
| 20260509175537 | 53 | 177 | 2.6 | 5.2 | 0.04 | 0.12 | 0.12 | 1 | 1009.4 |
| 20260509174515 | 53 | 246 | 1.7 | 3.5 | 0.05 | 0.11 | 0.11 | 1 | 1009.1 |
| 20260509173517 | 53 | 246 | 1.7 | 3.5 | 0.06 | 0.11 | 0.11 | 1 | 1009.2 |
| 20260509172517 | 53 | 246 | 0.0 | 1.7 | 0.07 | 0.10 | 0.10 | 1 | 1009.2 |
| 20260509171517 | 52 | 246 | 0.9 | 1.7 | 0.09 | 0.10 | 0.10 | 1 | 1009.3 |
| 20260509170537 | 52 | 245 | 1.7 | 3.5 | 0.09 | 0.09 | 0.09 | 1 | 1009.3 |
| 20260509165517 | 52 | 247 | 2.6 | 4.3 | 0.08 | 0.08 | 0.08 | 1 | 1009.4 |
| 20260509164515 | 53 | 271 | 0.9 | 2.6 | 0.06 | 0.06 | 0.06 | 7 | 1009.3 |
| 20260509163517 | 53 | 230 | 2.6 | 9.6 | 0.05 | 0.05 | 0.05 | 30 | 1009.6 |
| 20260509162517 | 54 | 232 | 6.1 | 9.6 | 0.03 | 0.03 | 0.03 | 36 | 1009.9 |
| 20260509161535 | 54 | 232 | 4.3 | 8.7 | 0.01 | 0.01 | 0.01 | 40 | 1009.9 |
| 20260509160517 | 55 | 220 | 6.1 | 9.6 | 0.00 | 0.00 | 0.00 | 51 | 1010.1 |
| 20260509155517 | 55 | 227 | 4.3 | 6.1 | 0.00 | 0.00 | 0.00 | 54 | 1010.0 |
| 20260509154515 | 56 | 225 | 3.5 | 5.2 | 0.00 | 0.00 | 0.00 | 60 | 1010.0 |
| 20260509153517 | 56 | 231 | 4.3 | 7.0 | 0.00 | 0.00 | 0.00 | 64 | 1010.1 |
| 20260509152517 | 56 | 230 | 4.3 | 7.8 | 0.00 | 0.00 | 0.00 | 63 | 1010.2 |
| 20260509151515 | 56 | 234 | 4.3 | 7.8 | 0.00 | 0.00 | 0.00 | 62 | 1010.2 |
| 20260509150537 | 56 | 243 | 5.2 | 7.8 | 0.00 | 0.00 | 0.00 | 62 | 1010.2 |
| 20260509145517 | 56 | 237 | 2.6 | 8.7 | 0.00 | 0.00 | 0.00 | 62 | 1010.0 |
| 20260509144515 | 55 | 210 | 2.6 | 7.8 | 0.00 | 0.00 | 0.00 | 60 | 1010.0 |
| 20260509143537 | 56 | 184 | 1.7 | 2.6 | 0.00 | 0.00 | 0.00 | 66 | 1010.0 |
| 20260509142517 | 56 | 102 | 0.0 | 4.3 | 0.00 | 0.00 | 0.00 | 64 | 1009.5 |
| 20260509141517 | 56 | 0.0 | 0.0 | 0.00 | 0.00 | 0.00 | 60 | 1009.5 | |
| 20260509140537 | 55 | 93 | 0.0 | 3.5 | 0.00 | 0.00 | 0.00 | 57 | 1009.5 |
| 20260509135517 | 55 | 91 | 0.9 | 2.6 | 0.00 | 0.00 | 0.00 | 60 | 1009.6 |
| 20260509134517 | 54 | 93 | 0.9 | 2.6 | 0.00 | 0.00 | 0.00 | 59 | 1009.6 |
| 20260509133517 | 54 | 93 | 0.9 | 2.6 | 0.00 | 0.00 | 0.00 | 60 | 1009.6 |
| 20260509132516 | 54 | 94 | 0.0 | 0.9 | 0.00 | 0.00 | 0.00 | 64 | 1009.8 |
| 20260509131517 | 54 | 94 | 0.9 | 1.7 | 0.00 | 0.00 | 0.00 | 65 | 1009.8 |
| 20260509130537 | 53 | 95 | 1.7 | 5.2 | 0.00 | 0.00 | 0.00 | 65 | 1009.5 |
| 20260509125517 | 53 | 95 | 3.5 | 6.1 | 0.00 | 0.00 | 0.00 | 63 | 1009.4 |
| 20260509124517 | 53 | 94 | 2.6 | 7.0 | 0.00 | 0.00 | 0.00 | 59 | 1009.3 |
| 20260509123517 | 53 | 96 | 3.5 | 6.1 | 0.00 | 0.00 | 0.00 | 57 | 1009.3 |
| 20260509122517 | 52 | 93 | 2.6 | 4.3 | 0.00 | 0.00 | 0.00 | 55 | 1009.5 |
| 20260509121535 | 52 | 93 | 2.6 | 4.3 | 0.00 | 0.00 | 0.00 | 54 | 1009.5 |
| 20260509120517 | 52 | 85 | 2.6 | 4.3 | 0.00 | 0.00 | 0.00 | 55 | 1009.6 |
| 20260509115517 | 51 | 89 | 2.6 | 3.5 | 0.00 | 0.00 | 0.00 | 54 | 1009.7 |
| 20260509114517 | 51 | 104 | 1.7 | 3.5 | 0.00 | 0.00 | 0.00 | 49 | 1009.6 |
| 20260509113517 | 51 | 84 | 2.6 | 4.3 | 0.00 | 0.00 | 0.00 | 44 | 1009.4 |
| 20260509112517 | 51 | 84 | 1.7 | 2.6 | 0.00 | 0.00 | 0.00 | 48 | 1009.4 |
| 20260509111515 | 51 | 99 | 1.7 | 4.3 | 0.00 | 0.00 | 0.00 | 50 | 1009.5 |
| 20260509110537 | 50 | 96 | 1.7 | 4.3 | 0.00 | 0.00 | 0.00 | 46 | 1009.1 |
| 20260509105516 | 50 | 89 | 2.6 | 3.5 | 0.00 | 0.00 | 0.00 | 46 | 1009.2 |
| 20260509104515 | 50 | 96 | 2.6 | 5.2 | 0.00 | 0.00 | 0.00 | 42 | 1009.0 |
| 20260509103517 | 50 | 90 | 1.7 | 3.5 | 0.00 | 0.00 | 0.00 | 44 | 1009.2 |
| 20260509102517 | 49 | 84 | 0.9 | 3.5 | 0.00 | 0.00 | 0.00 | 43 | 1009.2 |
| 20260509101515 | 49 | 80 | 2.6 | 4.3 | 0.00 | 0.00 | 0.00 | 44 | 1009.1 |
| 20260509100537 | 49 | 96 | 1.7 | 2.6 | 0.00 | 0.00 | 0.00 | 41 | 1008.9 |
| 20260509095517 | 49 | 102 | 1.7 | 4.3 | 0.00 | 0.00 | 0.00 | 40 | 1008.9 |
| 20260509094535 | 49 | 91 | 2.6 | 3.5 | 0.00 | 0.00 | 0.00 | 42 | 1008.9 |
| 20260509093537 | 49 | 87 | 2.6 | 5.2 | 0.00 | 0.00 | 0.00 | 47 | 1009.1 |
| 20260509092517 | 49 | 89 | 3.5 | 4.3 | 0.00 | 0.00 | 0.00 | 49 | 1009.1 |
| 20260509091517 | 49 | 84 | 1.7 | 3.5 | 0.00 | 0.00 | 0.00 | 47 | 1009.3 |
| 20260509090517 | 49 | 94 | 2.6 | 4.3 | 0.00 | 0.00 | 0.00 | 49 | 1009.5 |
| 20260509085517 | 49 | 87 | 0.9 | 4.3 | 0.00 | 0.00 | 0.00 | 50 | 1009.4 |
| 20260509084537 | 49 | 83 | 2.6 | 4.3 | 0.00 | 0.00 | 0.00 | 48 | 1009.4 |
| 20260509083517 | 49 | 81 | 3.5 | 4.3 | 0.00 | 0.00 | 0.00 | 47 | 1009.5 |
| 20260509082517 | 49 | 84 | 2.6 | 3.5 | 0.00 | 0.00 | 0.00 | 49 | 1009.5 |
| 20260509081537 | 49 | 87 | 1.7 | 2.6 | 0.00 | 0.00 | 0.00 | 54 | 1009.7 |
| 20260509080517 | 49 | 89 | 2.6 | 3.5 | 0.00 | 0.00 | 0.00 | 57 | 1009.7 |
| 20260509075516 | 49 | 92 | 1.7 | 3.5 | 0.00 | 0.00 | 0.00 | 61 | 1009.9 |
| 20260509074517 | 50 | 89 | 1.7 | 3.5 | 0.00 | 0.00 | 0.00 | 64 | 1009.9 |
| 20260509073517 | 50 | 92 | 2.6 | 2.6 | 0.00 | 0.00 | 0.00 | 64 | 1009.8 |
| 20260509072517 | 50 | 91 | 1.7 | 3.5 | 0.00 | 0.00 | 0.00 | 63 | 1009.7 |
| 20260509071517 | 51 | 84 | 0.9 | 3.5 | 0.00 | 0.00 | 0.00 | 66 | 1009.6 |
| 20260509070516 | 51 | 87 | 1.7 | 3.5 | 0.00 | 0.00 | 0.00 | 68 | 1009.6 |
| 20260509065517 | 51 | 73 | 0.0 | 1.7 | 0.00 | 0.00 | 0.00 | 70 | 1009.6 |
| 20260509064517 | 52 | 74 | 0.9 | 2.6 | 0.00 | 0.00 | 0.00 | 72 | 1009.7 |
| 20260509063517 | 52 | 72 | 1.7 | 2.6 | 0.00 | 0.00 | 0.00 | 73 | 1009.9 |
| 20260509062537 | 52 | 72 | 0.9 | 3.5 | 0.00 | 0.00 | 0.00 | 73 | 1010.2 |
| 20260509061517 | 52 | 82 | 1.7 | 2.6 | 0.00 | 0.00 | 0.00 | 72 | 1010.3 |
| 20260509060517 | 52 | 86 | 0.0 | 1.7 | 0.00 | 0.00 | 0.00 | 73 | 1010.4 |
| 20260509055517 | 52 | 86 | 0.9 | 1.7 | 0.00 | 0.00 | 0.00 | 74 | 1010.4 |
| 20260509054517 | 52 | 86 | 0.9 | 1.7 | 0.00 | 0.00 | 0.00 | 73 | 1010.4 |
| 20260509053517 | 52 | 86 | 0.9 | 1.7 | 0.00 | 0.00 | 0.00 | 74 | 1010.3 |
| 20260509052517 | 53 | 87 | 1.7 | 2.6 | 0.00 | 0.00 | 0.00 | 73 | 1010.4 |
| 20260509051517 | 53 | 89 | 0.0 | 2.6 | 0.00 | 0.00 | 0.00 | 73 | 1010.3 |
| 20260509050517 | 53 | 83 | 1.7 | 2.6 | 0.00 | 0.00 | 0.00 | 73 | 1010.3 |
| 20260509045517 | 53 | 72 | 0.9 | 3.5 | 0.00 | 0.00 | 0.00 | 73 | 1010.4 |
| 20260509044517 | 53 | 66 | 1.7 | 3.5 | 0.00 | 0.00 | 0.00 | 73 | 1010.5 |